Friedman Memorial Airport
KSUN : now visible

Airfield :











YOU CAN JOIN US ON...

 
LOGIN :

Register | Disclaimer

   EN    FR    IT 

 









Legend :    VFR   Marginal VFR   IFR   Intensive IFR   Very Intensive IFR
Visi :
Ceiling :
>= 8 km
>= 3000ft
5 to 8 km
1000 to 3000 ft
1500m to 5 km
500 to 1000 ft
800 to 1500m
200 to 500 ft
< 800m
< 200 ft
Symbols :   Thunderstorms  Fog  Heavy snow  Heavy precipitations  Wind > 20 kt






- Airport Elevation : 5318 ft


KSUN - Friedman Memorial

CURRENT METAR :
  • 211215Z AUTO 32007KT 10SM CLR M02/M03 A3009 RMK AO2

EXPIRED METARs :
  • 211155Z AUTO 32007KT 10SM CLR M02/M03 A3008 RMK AO2
  • 211135Z AUTO 32006KT 10SM CLR M01/M03 A3008 RMK AO2
  • 211115Z AUTO 34004KT 10SM CLR M02/M03 A3008 RMK AO2
  • 211055Z AUTO 33005KT 10SM CLR M01/M03 A3007 RMK AO2
  • 211035Z AUTO 33005KT 10SM CLR M01/M03 A3006 RMK AO2
  • 211015Z AUTO 32005KT 10SM CLR M01/M03 A3006 RMK AO2
  • 210955Z AUTO 34003KT 10SM CLR M01/M03 A3007 RMK AO2
  • 210935Z AUTO 32004KT 10SM CLR 00/M02 A3007 RMK AO2

TAF KSUN
Valid from the 21 at 12:00 until the 22 at 18:00 UTC


211120Z 2112/2218 32006KT P6SM SCT020 SCT040
FM211900 23011KT P6SM BKN100
FM220400 31006KT P6SM BKN100 AMD LTD TO CLD VIS AND WIND TIL 211300



MET'MAP, your aeronautical weather chart ! - Copyright ORBIFLY December 2007 - Disclaimer

ORBIFLY MET'MAP TEAM :

Programming & Development : Alexandra Zaïnal
Concept & Development : Baudouin d'Aumeries
Co-Development & Prog : Marc-Olivier Méhu
Technical & hardware support : Manuel Goepfert

Contact : metmap@orbifly.com




SOURCES & CREDITS :

   NOAA       Earth
Advisory